createdAt,value
2017-12-26T00:00:05.222Z,100134.64
2017-12-26T00:02:35.241Z,100135.91
2017-12-26T00:05:04.751Z,100126.03
2017-12-26T00:07:34.230Z,100121.40
2017-12-26T00:10:05.134Z,100102.55
2017-12-26T00:12:36.075Z,100100.88
2017-12-26T00:15:05.690Z,100086.11
2017-12-26T00:17:39.678Z,100082.20
2017-12-26T00:20:09.920Z,100075.04
2017-12-26T00:25:12.458Z,100052.17
2017-12-26T00:30:15.229Z,100034.92
2017-12-26T00:32:47.686Z,100030.70
2017-12-26T00:35:16.107Z,100025.23
2017-12-26T00:37:47.731Z,100017.41
2017-12-26T00:40:17.977Z,100019.69
2017-12-26T00:42:46.609Z,100014.31
2017-12-26T00:45:17.978Z,100008.53
2017-12-26T00:47:46.430Z,100006.91
2017-12-26T00:50:18.783Z,99980.45
2017-12-26T00:52:48.151Z,99984.31
2017-12-26T00:55:16.005Z,99981.95
2017-12-26T00:57:45.760Z,99981.58
2017-12-26T01:00:15.230Z,99969.08
2017-12-26T01:02:43.342Z,99966.40
2017-12-26T01:05:10.955Z,99962.63
2017-12-26T01:07:38.583Z,99955.58
2017-12-26T01:10:08.498Z,99952.85
2017-12-26T01:12:39.399Z,99947.77
2017-12-26T01:15:07.975Z,99939.16
2017-12-26T01:17:36.846Z,99939.77
2017-12-26T01:20:05.299Z,99926.47
2017-12-26T01:22:39.549Z,99930.07
2017-12-26T01:25:08.959Z,99905.90
2017-12-26T01:27:38.899Z,99909.05
2017-12-26T01:30:06.503Z,99911.20
2017-12-26T01:32:34.954Z,99904.86
2017-12-26T01:35:05.187Z,99904.66
2017-12-26T01:37:34.998Z,99897.05
2017-12-26T01:40:03.163Z,99892.31
2017-12-26T01:42:33.231Z,99891.66
2017-12-26T01:45:04.594Z,99887.64
2017-12-26T01:47:33.439Z,99886.47
2017-12-26T01:50:02.029Z,99890.73
2017-12-26T01:52:29.635Z,99885.30
2017-12-26T01:55:03.152Z,99871.37
2017-12-26T01:57:35.403Z,99872.77
2017-12-26T02:00:05.983Z,99870.94
2017-12-26T02:02:35.285Z,99867.15
2017-12-26T02:05:05.270Z,99865.03
2017-12-26T02:07:33.854Z,99857.35
2017-12-26T02:10:04.411Z,99847.52
2017-12-26T02:12:34.180Z,99850.08
2017-12-26T02:15:02.410Z,99843.00
2017-12-26T02:17:32.477Z,99845.84
2017-12-26T02:20:06.961Z,99845.12
2017-12-26T02:22:35.213Z,99832.53
2017-12-26T02:25:06.002Z,99837.30
2017-12-26T02:27:34.568Z,99837.34
2017-12-26T02:30:05.913Z,99833.16
2017-12-26T02:32:35.801Z,99826.44
2017-12-26T02:35:04.534Z,99823.71
2017-12-26T02:37:35.680Z,99823.48
2017-12-26T02:40:03.256Z,99815.05
2017-12-26T02:42:42.456Z,99811.34
2017-12-26T02:45:12.479Z,99804.09
2017-12-26T02:47:44.147Z,99792.94
2017-12-26T02:50:20.424Z,99790.72
2017-12-26T02:52:54.896Z,99791.64
2017-12-26T02:55:27.002Z,99787.44
2017-12-26T02:57:55.842Z,99776.58
2017-12-26T03:00:25.242Z,99768.20
2017-12-26T03:02:52.834Z,99767.13
2017-12-26T03:18:53.186Z,99714.41
2017-12-26T03:21:25.468Z,99714.23
2017-12-26T03:23:53.065Z,99705.84
2017-12-26T03:26:22.367Z,99694.91
2017-12-26T03:28:51.050Z,99694.10
2017-12-26T03:31:20.423Z,99684.15
2017-12-26T03:33:48.487Z,99684.53
2017-12-26T03:36:16.070Z,99687.63
2017-12-26T03:38:44.320Z,99676.92
2017-12-26T03:41:12.905Z,99671.77
2017-12-26T03:43:45.588Z,99670.05
2017-12-26T03:46:13.175Z,99657.70
2017-12-26T03:48:41.707Z,99648.95
2017-12-26T03:51:12.134Z,99639.12
2017-12-26T03:53:39.727Z,99640.94
2017-12-26T03:56:08.151Z,99633.91
2017-12-26T03:58:36.491Z,99625.00
2017-12-26T04:01:05.730Z,99616.32
2017-12-26T04:03:34.970Z,99624.98
2017-12-26T04:06:03.401Z,99627.77
2017-12-26T04:08:32.755Z,99611.63
2017-12-26T04:11:00.895Z,99614.63
2017-12-26T04:13:32.003Z,99598.45
2017-12-26T04:16:00.911Z,99589.61
2017-12-26T04:18:28.918Z,99579.41
2017-12-26T04:20:59.057Z,99581.55
2017-12-26T04:23:27.585Z,99572.78
2017-12-26T04:25:55.664Z,99569.61
2017-12-26T04:28:25.207Z,99566.30
2017-12-26T04:30:53.519Z,99575.76
2017-12-26T04:33:22.901Z,99568.58
2017-12-26T04:35:52.144Z,99550.64
2017-12-26T04:38:51.369Z,99554.38
2017-12-26T04:41:20.418Z,99534.02
2017-12-26T04:43:52.058Z,99539.20
2017-12-26T04:46:20.399Z,99529.48
2017-12-26T04:48:48.786Z,99501.83
2017-12-26T04:51:18.194Z,99495.04
2017-12-26T04:53:45.879Z,99480.27
2017-12-26T04:56:15.550Z,99471.91
2017-12-26T04:58:46.306Z,99473.89
2017-12-26T05:01:17.443Z,99461.89
2017-12-26T05:03:45.766Z,99452.72
2017-12-26T05:06:13.351Z,99455.75
2017-12-26T05:08:41.934Z,99455.61
2017-12-26T05:11:10.750Z,99450.42
2017-12-26T05:13:38.590Z,99451.34
2017-12-26T05:16:08.505Z,99445.61
2017-12-26T05:18:37.227Z,99432.02
2017-12-26T05:21:04.807Z,99433.89
2017-12-26T05:23:33.879Z,99425.36
2017-12-26T05:26:02.514Z,99423.10
2017-12-26T05:28:31.684Z,99423.47
2017-12-26T05:31:03.718Z,99406.28
2017-12-26T05:33:32.588Z,99416.24
2017-12-26T05:36:00.163Z,99412.09
2017-12-26T05:38:30.542Z,99414.73
2017-12-26T05:41:00.892Z,99405.54
2017-12-26T05:43:28.598Z,99410.75
2017-12-26T05:45:59.837Z,99432.42
2017-12-26T05:48:30.151Z,99420.70
2017-12-26T05:51:00.271Z,99425.90
2017-12-26T05:53:29.834Z,99427.30
2017-12-26T05:55:58.399Z,99426.23
2017-12-26T05:58:26.414Z,99429.81
2017-12-26T06:00:54.002Z,99428.02
2017-12-26T06:03:22.820Z,99427.98
2017-12-26T06:05:59.866Z,99420.48
2017-12-26T06:08:31.811Z,99416.06
2017-12-26T06:11:01.209Z,99424.89
2017-12-26T06:13:29.994Z,99429.31
2017-12-26T06:16:00.980Z,99435.28
2017-12-26T06:18:29.870Z,99429.83
2017-12-26T06:20:58.422Z,99432.20
2017-12-26T06:23:33.635Z,99456.47
2017-12-26T06:26:01.211Z,99446.72
2017-12-26T06:28:28.859Z,99461.12
2017-12-26T06:30:58.419Z,99457.66
2017-12-26T06:33:26.722Z,99450.75
2017-12-26T06:35:54.868Z,99451.59
2017-12-26T06:38:27.011Z,99449.21
2017-12-26T06:40:56.183Z,99453.08
2017-12-26T06:43:25.614Z,99452.66
2017-12-26T06:45:53.961Z,99452.29
2017-12-26T06:48:22.438Z,99454.27
2017-12-26T06:50:51.854Z,99458.95
2017-12-26T06:53:21.336Z,99453.35
2017-12-26T06:55:52.586Z,99454.98
2017-12-26T06:58:23.467Z,99451.27
2017-12-26T07:00:54.782Z,99455.55
2017-12-26T07:03:26.464Z,99461.67
2017-12-26T07:05:54.882Z,99463.83
2017-12-26T07:08:24.803Z,99466.23
2017-12-26T07:10:53.536Z,99464.53
2017-12-26T07:13:22.870Z,99469.04
2017-12-26T07:15:50.502Z,99470.14
2017-12-26T07:18:20.547Z,99462.95
2017-12-26T07:20:53.655Z,99467.87
2017-12-26T07:23:21.674Z,99467.34
2017-12-26T07:25:49.287Z,99480.42
2017-12-26T07:28:17.787Z,99487.23
2017-12-26T07:30:48.417Z,99485.34
2017-12-26T07:33:18.095Z,99484.29
2017-12-26T07:35:46.480Z,99492.43
2017-12-26T07:38:15.159Z,99500.83
2017-12-26T07:40:42.763Z,99500.45
2017-12-26T07:43:12.146Z,99505.37
2017-12-26T07:45:41.057Z,99499.67
2017-12-26T07:48:10.823Z,99496.20
2017-12-26T07:50:40.770Z,99501.80
2017-12-26T07:53:10.468Z,99510.88
2017-12-26T07:55:41.128Z,99501.41
2017-12-26T07:58:11.361Z,99508.89
2017-12-26T08:00:40.051Z,99516.33
2017-12-26T08:03:13.202Z,99522.98
2017-12-26T08:05:42.156Z,99521.78
2017-12-26T08:08:11.460Z,99528.44
2017-12-26T08:10:40.139Z,99529.22
2017-12-26T08:13:10.459Z,99529.11
2017-12-26T08:15:39.051Z,99541.74
2017-12-26T08:18:08.194Z,99535.09
2017-12-26T08:20:35.802Z,99535.36
2017-12-26T08:23:03.409Z,99536.69
2017-12-26T08:25:32.898Z,99537.90
2017-12-26T08:28:01.334Z,99542.95
2017-12-26T08:30:31.040Z,99545.59
2017-12-26T08:33:00.399Z,99563.43
2017-12-26T08:35:30.140Z,99572.20
2017-12-26T08:38:00.163Z,99580.16
2017-12-26T08:40:29.832Z,99573.38
2017-12-26T08:42:58.226Z,99578.73
2017-12-26T08:45:27.714Z,99581.25
2017-12-26T08:47:56.314Z,99586.28
2017-12-26T08:50:25.794Z,99603.30
2017-12-26T08:52:56.317Z,99600.12
2017-12-26T08:55:24.904Z,99605.30
2017-12-26T08:57:54.207Z,99601.44
2017-12-26T09:00:22.792Z,99613.27
2017-12-26T09:02:51.361Z,99621.92
2017-12-26T09:05:19.770Z,99619.76
2017-12-26T09:07:50.617Z,99618.43
2017-12-26T09:10:23.102Z,99619.64
2017-12-26T09:12:57.517Z,99619.22
2017-12-26T09:15:28.414Z,99619.36
2017-12-26T09:18:03.306Z,99625.98
2017-12-26T09:20:31.941Z,99615.33
2017-12-26T09:23:01.307Z,99608.96
2017-12-26T09:25:32.433Z,99611.90
2017-12-26T09:28:00.914Z,99608.56
2017-12-26T09:30:28.682Z,99610.16
2017-12-26T09:32:58.540Z,99599.93
2017-12-26T09:35:30.433Z,99594.75
2017-12-26T09:37:58.726Z,99603.93
2017-12-26T09:40:27.423Z,99608.16
2017-12-26T09:42:56.001Z,99616.56
2017-12-26T09:45:25.746Z,99613.37
2017-12-26T09:48:03.297Z,99620.27
2017-12-26T09:50:33.000Z,99627.63
2017-12-26T09:53:01.270Z,99614.69
2017-12-26T09:55:28.858Z,99605.91
2017-12-26T09:57:57.308Z,99615.75
2017-12-26T10:00:27.821Z,99619.59
2017-12-26T10:02:56.438Z,99624.77
2017-12-26T10:05:25.090Z,99616.41
2017-12-26T10:07:53.823Z,99620.37
2017-12-26T10:10:22.424Z,99621.72
2017-12-26T10:12:50.638Z,99625.59
2017-12-26T10:15:18.898Z,99622.41
2017-12-26T10:17:47.371Z,99628.66
2017-12-26T10:20:18.586Z,99612.70
2017-12-26T10:22:47.035Z,99622.41
2017-12-26T10:25:15.646Z,99630.14
2017-12-26T10:27:43.259Z,99628.13
2017-12-26T10:32:46.979Z,99627.89
2017-12-26T10:35:15.792Z,99622.61
2017-12-26T10:37:45.598Z,99630.17
2017-12-26T10:40:15.206Z,99626.06
2017-12-26T10:42:45.682Z,99626.22
2017-12-26T10:45:14.836Z,99624.62
2017-12-26T10:47:44.073Z,99626.59
2017-12-26T10:50:12.849Z,99627.56
2017-12-26T10:52:43.936Z,99630.88
2017-12-26T10:55:12.748Z,99629.54
2017-12-26T10:57:40.939Z,99622.48
2017-12-26T11:00:12.155Z,99619.95
2017-12-26T11:02:41.302Z,99618.23
2017-12-26T11:05:10.739Z,99616.77
2017-12-26T11:07:39.167Z,99620.12
2017-12-26T11:10:09.453Z,99628.09
2017-12-26T11:12:39.865Z,99629.70
2017-12-26T11:15:12.473Z,99625.47
2017-12-26T11:20:16.856Z,99635.97
2017-12-26T11:22:48.088Z,99635.45
2017-12-26T11:25:15.671Z,99626.41
2017-12-26T11:27:44.016Z,99628.81
2017-12-26T11:30:12.830Z,99626.39
2017-12-26T11:32:40.970Z,99620.00
2017-12-26T11:35:09.421Z,99620.27
2017-12-26T11:37:40.723Z,99624.13
2017-12-26T11:40:10.888Z,99624.55
2017-12-26T11:42:45.327Z,99630.66
2017-12-26T11:45:14.615Z,99639.34
2017-12-26T11:47:48.171Z,99638.80
2017-12-26T11:50:22.185Z,99645.73
2017-12-26T11:52:50.907Z,99653.86
2017-12-26T11:55:19.544Z,99671.69
2017-12-26T11:57:51.393Z,99668.75
2017-12-26T12:00:24.400Z,99661.83
2017-12-26T12:02:53.623Z,99646.02
2017-12-26T12:05:23.075Z,99662.00
2017-12-26T12:07:52.928Z,99656.27
2017-12-26T12:10:23.792Z,99654.66
2017-12-26T12:12:52.598Z,99639.59
2017-12-26T12:15:23.407Z,99647.05
2017-12-26T12:17:51.803Z,99652.78
2017-12-26T12:20:20.840Z,99636.11
2017-12-26T12:22:49.289Z,99634.36
2017-12-26T12:25:19.637Z,99639.54
2017-12-26T12:27:49.757Z,99638.76
2017-12-26T12:30:18.805Z,99642.28
2017-12-26T12:32:47.963Z,99647.26
2017-12-26T12:35:17.501Z,99643.92
2017-12-26T12:37:47.688Z,99646.48
2017-12-26T12:40:19.584Z,99664.59
2017-12-26T12:42:48.896Z,99646.62
2017-12-26T12:45:17.271Z,99647.69
2017-12-26T12:47:47.489Z,99640.23
2017-12-26T12:50:48.724Z,99649.70
2017-12-26T12:53:16.548Z,99641.84
2017-12-26T12:55:44.134Z,99642.91
2017-12-26T12:58:13.404Z,99645.98
2017-12-26T13:00:41.041Z,99644.24
2017-12-26T13:03:10.757Z,99644.24
2017-12-26T13:05:40.843Z,99632.80
2017-12-26T13:08:11.215Z,99639.05
2017-12-26T13:10:42.107Z,99620.80
2017-12-26T13:13:10.207Z,99629.72
2017-12-26T13:15:38.792Z,99631.59
2017-12-26T13:18:08.837Z,99628.25
2017-12-26T13:20:37.028Z,99619.84
2017-12-26T13:23:05.967Z,99626.36
2017-12-26T13:25:38.326Z,99623.69
2017-12-26T13:28:13.368Z,99630.22
2017-12-26T13:30:41.851Z,99629.84
2017-12-26T13:33:09.458Z,99623.97
2017-12-26T13:35:44.524Z,99618.64
2017-12-26T13:38:19.453Z,99614.55
2017-12-26T13:40:48.322Z,99612.80
2017-12-26T13:43:16.163Z,99617.34
2017-12-26T13:45:47.787Z,99620.52
2017-12-26T13:48:19.648Z,99612.39
2017-12-26T13:50:49.823Z,99622.13
2017-12-26T13:53:18.945Z,99609.63
2017-12-26T13:55:47.967Z,99614.28
2017-12-26T13:58:17.539Z,99609.08
2017-12-26T14:00:47.790Z,99608.16
2017-12-26T14:03:18.201Z,99627.59
2017-12-26T14:05:47.306Z,99625.07
2017-12-26T14:08:14.914Z,99621.34
2017-12-26T14:10:45.875Z,99614.55
2017-12-26T14:13:15.264Z,99627.73
2017-12-26T14:15:44.011Z,99625.34
2017-12-26T14:18:15.031Z,99621.86
2017-12-26T14:20:45.866Z,99634.91
2017-12-26T14:23:15.829Z,99636.24
2017-12-26T14:25:44.902Z,99648.52
2017-12-26T14:28:15.780Z,99637.58
2017-12-26T14:30:44.579Z,99641.20
2017-12-26T14:33:12.223Z,99638.78
2017-12-26T14:35:43.511Z,99638.13
2017-12-26T14:38:14.215Z,99643.05
2017-12-26T14:40:42.283Z,99648.14
2017-12-26T14:43:10.906Z,99652.92
2017-12-26T14:45:41.012Z,99647.73
2017-12-26T14:48:08.660Z,99643.73
2017-12-26T14:50:37.063Z,99639.08
2017-12-26T14:53:06.459Z,99633.48
2017-12-26T14:55:35.379Z,99632.69
2017-12-26T14:58:04.980Z,99628.39
2017-12-26T15:00:32.556Z,99644.38
2017-12-26T15:03:02.244Z,99627.73
2017-12-26T15:05:32.885Z,99633.47
2017-12-26T15:08:01.677Z,99624.15
2017-12-26T15:10:29.284Z,99639.59
2017-12-26T15:12:58.953Z,99633.72
2017-12-26T15:15:26.546Z,99634.40
2017-12-26T15:17:54.839Z,99643.99
2017-12-26T15:20:23.369Z,99634.94
2017-12-26T15:22:51.286Z,99638.67
2017-12-26T15:25:23.588Z,99641.06
2017-12-26T15:27:55.719Z,99643.86
2017-12-26T15:30:24.858Z,99645.47
2017-12-26T15:32:55.632Z,99632.92
2017-12-26T15:35:25.498Z,99644.91
2017-12-26T15:37:55.285Z,99644.91
2017-12-26T15:40:23.432Z,99651.70
2017-12-26T15:42:54.267Z,99642.25
2017-12-26T15:45:23.910Z,99655.70
2017-12-26T15:47:54.219Z,99671.68
2017-12-26T15:50:22.703Z,99655.30
2017-12-26T15:52:51.256Z,99660.91
2017-12-26T15:55:19.602Z,99658.61
2017-12-26T15:57:48.179Z,99654.64
2017-12-26T16:00:16.958Z,99652.89
2017-12-26T16:02:46.909Z,99647.84
2017-12-26T16:05:19.892Z,99644.77
2017-12-26T16:07:51.284Z,99639.31
2017-12-26T16:10:25.323Z,99641.05
2017-12-26T16:12:53.832Z,99629.86
2017-12-26T16:15:22.280Z,99620.02
2017-12-26T16:17:49.877Z,99603.64
2017-12-26T16:20:28.854Z,99601.25
2017-12-26T16:22:56.478Z,99595.66
2017-12-26T16:25:25.124Z,99586.20
2017-12-26T16:27:52.765Z,99588.59
2017-12-26T16:30:23.732Z,99585.14
2017-12-26T16:32:53.240Z,99585.80
2017-12-26T16:35:24.692Z,99581.93
2017-12-26T16:37:52.550Z,99590.86
2017-12-26T16:40:24.663Z,99585.41
2017-12-26T16:42:56.012Z,99588.48
2017-12-26T16:45:27.216Z,99590.19
2017-12-26T16:47:56.873Z,99586.20
2017-12-26T16:50:24.498Z,99588.86
2017-12-26T16:52:53.178Z,99591.38
2017-12-26T16:55:22.368Z,99589.78
2017-12-26T16:57:51.723Z,99587.02
2017-12-26T17:00:19.300Z,99582.61
2017-12-26T17:02:49.271Z,99583.80
2017-12-26T17:05:19.473Z,99575.95
2017-12-26T17:07:47.679Z,99571.16
2017-12-26T17:10:17.622Z,99575.83
2017-12-26T17:12:45.967Z,99573.27
2017-12-26T17:15:14.882Z,99565.45
2017-12-26T17:17:44.382Z,99565.44
2017-12-26T17:20:13.176Z,99568.23
2017-12-26T17:22:41.836Z,99573.13
2017-12-26T17:25:11.628Z,99565.97
2017-12-26T17:27:39.232Z,99566.75
2017-12-26T17:30:13.339Z,99558.77
2017-12-26T17:32:40.942Z,99555.46
2017-12-26T17:35:09.613Z,99565.42
2017-12-26T17:37:40.175Z,99552.79
2017-12-26T17:40:08.434Z,99560.50
2017-12-26T17:42:36.802Z,99559.94
2017-12-26T17:45:11.321Z,99552.36
2017-12-26T17:47:38.942Z,99547.72
2017-12-26T17:50:08.443Z,99554.89
2017-12-26T17:52:37.242Z,99544.25
2017-12-26T17:55:13.561Z,99536.27
2017-12-26T17:57:41.744Z,99536.66
2017-12-26T18:00:13.374Z,99530.93
2017-12-26T18:02:46.085Z,99533.73
2017-12-26T18:05:14.917Z,99527.74
2017-12-26T18:07:42.557Z,99510.73
2017-12-26T18:10:10.715Z,99520.17
2017-12-26T18:12:39.275Z,99512.98
2017-12-26T18:15:06.999Z,99506.33
2017-12-26T18:17:37.847Z,99505.95
2017-12-26T18:20:06.963Z,99495.56
2017-12-26T18:22:37.650Z,99502.08
2017-12-26T18:25:09.858Z,99502.21
2017-12-26T18:27:39.213Z,99487.34
2017-12-26T18:30:08.732Z,99476.42
2017-12-26T18:32:38.158Z,99478.67
2017-12-26T18:35:06.148Z,99475.50
2017-12-26T18:37:34.858Z,99463.25
2017-12-26T18:40:03.672Z,99464.16
2017-12-26T18:42:32.110Z,99458.45
2017-12-26T18:45:02.859Z,99447.81
2017-12-26T18:47:32.438Z,99451.14
2017-12-26T18:50:02.515Z,99449.26
2017-12-26T18:52:31.942Z,99436.36
2017-12-26T18:55:00.122Z,99438.64
2017-12-26T18:57:28.618Z,99430.39
2017-12-26T18:59:56.757Z,99426.41
2017-12-26T19:02:24.425Z,99420.81
2017-12-26T19:04:52.662Z,99415.61
2017-12-26T19:07:21.322Z,99408.03
2017-12-26T19:09:53.609Z,99406.02
2017-12-26T19:12:24.518Z,99410.83
2017-12-26T19:14:52.857Z,99407.61
2017-12-26T19:17:20.494Z,99397.66
2017-12-26T19:19:48.082Z,99391.55
2017-12-26T19:22:15.711Z,99382.88
2017-12-26T19:24:43.773Z,99379.30
2017-12-26T19:27:12.582Z,99372.52
2017-12-26T19:29:41.442Z,99365.23
2017-12-26T19:32:14.238Z,99360.05
2017-12-26T19:34:43.576Z,99350.35
2017-12-26T19:37:11.894Z,99349.42
2017-12-26T19:39:42.267Z,99342.91
2017-12-26T19:42:10.726Z,99343.68
2017-12-26T19:44:39.494Z,99331.07
2017-12-26T19:47:09.377Z,99326.44
2017-12-26T19:52:13.495Z,99314.72
2017-12-26T19:54:41.099Z,99306.64
2017-12-26T19:57:09.403Z,99301.70
2017-12-26T19:59:38.712Z,99291.75
2017-12-26T20:02:09.291Z,99285.92
2017-12-26T20:04:36.938Z,99278.87
2017-12-26T20:07:05.013Z,99269.44
2017-12-26T20:09:32.778Z,99273.69
2017-12-26T20:12:00.364Z,99265.73
2017-12-26T20:14:30.126Z,99258.16
2017-12-26T20:17:03.533Z,99258.01
2017-12-26T20:19:32.007Z,99253.62
2017-12-26T20:22:05.981Z,99255.33
2017-12-26T20:24:35.393Z,99248.17
2017-12-26T20:27:05.015Z,99243.31
2017-12-26T20:29:35.841Z,99245.59
2017-12-26T20:32:03.440Z,99242.66
2017-12-26T20:34:32.882Z,99235.77
2017-12-26T20:37:00.482Z,99231.16
2017-12-26T20:39:28.187Z,99225.48
2017-12-26T20:41:56.537Z,99221.63
2017-12-26T20:44:24.419Z,99213.13
2017-12-26T20:46:56.700Z,99213.02
2017-12-26T20:49:25.718Z,99206.24
2017-12-26T20:51:56.923Z,99202.13
2017-12-26T20:54:24.614Z,99200.00
2017-12-26T20:56:53.062Z,99198.02
2017-12-26T20:59:22.923Z,99194.29
2017-12-26T21:01:50.641Z,99187.51
2017-12-26T21:04:20.934Z,99184.98
2017-12-26T21:06:49.239Z,99187.22
2017-12-26T21:09:18.474Z,99185.61
2017-12-26T21:11:48.273Z,99180.98
2017-12-26T21:14:18.553Z,99174.20
2017-12-26T21:16:46.964Z,99162.26
2017-12-26T21:19:15.204Z,99152.85
2017-12-26T21:21:45.246Z,99145.02
2017-12-26T21:24:14.196Z,99141.18
2017-12-26T21:26:44.139Z,99134.69
2017-12-26T21:29:12.678Z,99125.77
2017-12-26T21:31:41.184Z,99119.95
2017-12-26T21:36:53.604Z,99116.63
2017-12-26T21:39:22.251Z,99113.83
2017-12-26T21:41:52.170Z,99110.25
2017-12-26T21:44:22.793Z,99110.66
2017-12-26T21:46:50.756Z,99108.94
2017-12-26T21:49:20.964Z,99094.98
2017-12-26T21:54:24.897Z,99092.79
2017-12-26T21:56:55.003Z,99095.95
2017-12-26T21:59:24.259Z,99091.98
2017-12-26T22:01:53.200Z,99086.94
2017-12-26T22:04:21.702Z,99086.29
2017-12-26T22:06:50.554Z,99076.05
2017-12-26T22:09:18.190Z,99068.91
2017-12-26T22:11:48.442Z,99059.72
2017-12-26T22:14:19.632Z,99055.61
2017-12-26T22:16:50.896Z,99055.87
2017-12-26T22:19:20.499Z,99052.30
2017-12-26T22:21:51.648Z,99046.99
2017-12-26T22:24:21.809Z,99042.61
2017-12-26T22:26:50.168Z,99041.41
2017-12-26T22:29:17.845Z,99041.41
2017-12-26T22:31:47.225Z,99029.23
2017-12-26T22:34:19.516Z,99034.41
2017-12-26T22:36:47.780Z,99027.23
2017-12-26T22:39:16.978Z,99021.92
2017-12-26T22:41:48.814Z,99018.48
2017-12-26T22:44:19.287Z,99008.92
2017-12-26T22:46:46.889Z,98990.48
2017-12-26T22:49:15.714Z,98975.74
2017-12-26T22:51:44.008Z,98970.03
2017-12-26T22:54:12.871Z,98966.59
2017-12-26T22:56:46.166Z,98952.78
2017-12-26T22:59:16.168Z,98944.14
2017-12-26T23:01:45.295Z,98930.36
2017-12-26T23:04:14.694Z,98927.43
2017-12-26T23:06:42.988Z,98921.84
2017-12-26T23:09:13.127Z,98918.92
2017-12-26T23:11:44.097Z,98910.81
2017-12-26T23:14:20.903Z,98902.98
2017-12-26T23:16:54.162Z,98897.66
2017-12-26T23:19:24.912Z,98890.77
2017-12-26T23:21:54.087Z,98890.25
2017-12-26T23:24:27.239Z,98879.59
2017-12-26T23:27:00.238Z,98877.60
2017-12-26T23:29:33.324Z,98871.86
2017-12-26T23:32:08.419Z,98868.50
2017-12-26T23:34:41.505Z,98863.05
2017-12-26T23:37:19.322Z,98858.92
2017-12-26T23:39:52.520Z,98838.44
2017-12-26T23:42:27.518Z,98837.64
2017-12-26T23:45:00.683Z,98820.77
2017-12-26T23:47:33.802Z,98815.98
2017-12-26T23:50:08.581Z,98805.34
2017-12-26T23:52:41.703Z,98806.11
2017-12-26T23:55:15.712Z,98804.36
2017-12-26T23:57:49.745Z,98809.28
